Obion, Tennessee
Current Conditions -  °F | °C
As of 8:55 PM on Sunday 23 Nov 2014 (Local Time) from KUCY Reporting Station
Overcast Overcast  
Wind Chill: 57°   Ceiling: 800
Heat Index: 57°   Visibility: 5mi
Dew Point: 57°   Wind: 13mph
Humidity: 100%   Direction: 210°SSW
Pressure: 29.41"   Gusts: NA
Location:  36.26°N, 89.19°W
Report Text: KUCY 240255Z AUTO 21011KT 5SM OVC008 14/14 A2941 RMK
Loading
Personal Weather Stations






























Interactive Weather Map New forecast layout! Learn more

10-Day Weather Forecast

Advertisements
Track Severe Weather on mobile